Data for 05/13/2013

Time Sea-Level Adjusted Pressure Absolute Pressure Temperature Relative Humidity Dew Point Precipitation   
(mb) (inHg) (mb) (inHg) (C) (F) (%) (C) (F) (mm) (in)
00:05 1021 30.15 850 25.1 16.9 62.4 38 2.6 36.7 0 0
00:10 1021 30.15 850 25.1 15.9 60.6 39 2.1 35.9 0 0
00:15 1021 30.15 850 25.1 15.5 59.9 42 2.7 36.9 0 0
00:20 1021 30.15 850 25.1 14.5 58 46 3 37.5 0 0
00:25 1021 30.15 850 25.1 13.5 56.2 48 2.8 37.1 0 0
00:30 1021 30.15 850 25.1 13.3 56 46 2.1 35.8 0 0
00:35 1021 30.15 850 25.1 13.5 56.3 47 2.6 36.6 0 0
00:40 1021 30.15 850 25.1 13.6 56.5 47 2.6 36.6 0 0
00:45 1021 30.15 850 25.1 13.5 56.3 47 2.5 36.5 0 0
00:50 1021 30.15 850 25.1 13.4 56 48 2.6 36.7 0 0
00:55 1021 30.15 850 25.1 13.3 55.9 48 2.7 36.9 0 0
01:00 1021 30.15 850 25.1 13.2 55.8 48 2.6 36.8 0 0
01:05 1021 30.15 850 25.1 13.2 55.7 47 2.2 35.9 0 0
01:10 1021 30.15 850 25.1 13.7 56.7 44 1.8 35.2 0 0
01:15 1021 30.15 850 25.1 14.6 58.2 41 1.6 34.8 0 0
01:20 1021 30.15 850 25.1 14.9 58.9 42 2.3 36.2 0 0
01:25 1021 30.15 851 25.13 14.6 58.2 44 2.6 36.7 0 0
01:30 1021 30.15 851 25.13 14.1 57.4 45 2.5 36.4 0 0
01:35 1021 30.15 851 25.13 13.9 57.1 45 2.3 36.2 0 0
01:40 1021 30.15 851 25.13 13.9 57.1 45 2.3 36.2 0 0
01:45 1021 30.15 851 25.13 13.9 57 45 2.3 36.2 0 0
01:50 1021 30.15 851 25.13 14.1 57.3 43 1.8 35.2 0 0
01:55 1021 30.15 851 25.13 14.3 57.7 44 2.4 36.3 0 0
02:00 1021 30.15 850 25.1 13.7 56.6 46 2.5 36.4 0 0
02:05 1021 30.15 850 25.1 13 55.5 50 2.9 37.2 0 0
02:10 1021 30.15 850 25.1 12.1 53.8 53 3 37.3 0 0
02:15 1021 30.15 850 25.1 11.2 52.2 55 2.7 36.8 0 0
02:20 1021 30.15 850 25.1 11 51.8 55 2.5 36.5 0 0
02:25 1021 30.15 850 25.1 11 51.9 56 2.6 36.7 0 0
02:30 1021 30.15 850 25.1 10.8 51.4 58 2.8 37 0 0
02:35 1021 30.15 850 25.1 10.2 50.4 60 2.9 37.3 0 0
02:40 1021 30.15 850 25.1 9.7 49.5 62 2.7 36.9 0 0
02:45 1021 30.15 850 25.1 9.3 48.7 64 2.8 37.1 0 0
02:50 1021 30.15 850 25.1 9.4 48.8 58 1.7 35 0 0
02:55 1021 30.15 850 25.1 10.5 51 53 1.3 34.4 0 0
03:00 1021 30.15 850 25.1 10.7 51.3 54 1.8 35.3 0 0
03:05 1021 30.15 850 25.1 9.9 49.8 57 1.8 35.2 0 0
03:10 1021 30.15 850 25.1 11 51.7 50 1.1 33.9 0 0
03:15 1021 30.15 850 25.1 11.3 52.3 52 1.9 35.4 0 0
03:20 1021 30.15 850 25.1 10.5 51 56 2.2 36 0 0
03:25 1021 30.15 850 25.1 10.2 50.4 59 2.5 36.6 0 0
03:30 1021 30.15 850 25.1 9 48.1 64 2.6 36.6 0 0
03:35 1021 30.15 851 25.13 8.7 47.7 62 1.8 35.3 0 0
03:40 1021 30.15 850 25.1 9.1 48.3 60 1.7 35.1 0 0
03:45 1021 30.15 850 25.1 9.8 49.6 58 1.8 35.3 0 0
03:50 1021 30.15 850 25.1 10.3 50.5 56 2 35.6 0 0
03:55 1021 30.15 850 25.1 10 50.1 61 2.8 37.1 0 0
04:00 1021 30.15 850 25.1 10 49.9 56 1.7 35 0 0
04:05 1021 30.15 850 25.1 10.4 50.6 57 2.2 35.9 0 0
04:10 1021 30.15 850 25.1 10.4 50.6 58 2.4 36.4 0 0
04:15 1021 30.15 850 25.1 9.9 49.8 60 2.4 36.4 0 0
04:20 1021 30.15 850 25.1 9.8 49.7 57 1.8 35.2 0 0
04:25 1021 30.15 850 25.1 9.9 49.8 61 2.8 37 0 0
04:30 1021 30.15 850 25.1 8.7 47.7 64 2.3 36.1 0 0
04:35 1021 30.15 850 25.1 8.9 48 59 1.4 34.6 0 0
04:40 1021 30.15 850 25.1 9.3 48.8 61 2.1 35.8 0 0
04:45 1021 30.15 850 25.1 8.9 47.9 62 2.1 35.7 0 0
04:50 1021 30.15 850 25.1 8.5 47.2 64 2.1 35.8 0 0
04:55 1021 30.15 850 25.1 8.8 47.8 62 1.8 35.3 0 0
05:00 1021 30.15 850 25.1 8.8 47.8 63 2.2 35.9 0 0
05:05 1021 30.15 850 25.1 8.7 47.6 61 1.6 34.9 0 0
05:10 1021 30.15 850 25.1 8.6 47.5 64 2.2 36 0 0
05:15 1021 30.15 850 25.1 8.3 46.9 63 1.8 35.2 0 0
05:20 1021 30.15 850 25.1 8.5 47.4 60 1.3 34.3 0 0
05:25 1021 30.15 850 25.1 9.6 49.3 57 1.6 34.9 0 0
05:30 1021 30.15 850 25.1 9.8 49.7 59 2.2 35.9 0 0
05:35 1021 30.15 850 25.1 9.4 48.9 60 2 35.6 0 0
05:40 1021 30.15 850 25.1 9.2 48.6 58 1.3 34.4 0 0
05:45 1021 30.15 850 25.1 9.4 48.9 61 2.4 36.2 0 0
05:50 1021 30.15 850 25.1 8.6 47.4 63 1.9 35.4 0 0
05:55 1021 30.15 850 25.1 8.4 47 66 2.3 36.2 0 0
06:00 1021 30.15 850 25.1 7.4 45.4 68 2 35.6 0 0
06:05 1021 30.15 850 25.1 6.9 44.4 68 1.4 34.5 0 0
06:10 1021 30.15 850 25.1 7.1 44.8 66 1.2 34.1 0 0
06:15 1021 30.15 850 25.1 8.6 47.5 58 0.7 33.3 0 0
06:20 1021 30.15 850 25.1 9.8 49.7 56 1.4 34.5 0 0
06:25 1021 30.15 850 25.1 10.3 50.5 57 2.3 36.1 0 0
06:30 1021 30.15 850 25.1 9.7 49.5 63 3 37.4 0 0
06:35 1021 30.15 850 25.1 8.5 47.2 62 1.7 35.1 0 0
06:40 1021 30.15 850 25.1 9 48.2 59 1.4 34.6 0 0
06:45 1021 30.15 850 25.1 9.4 49 63 2.7 36.9 0 0
06:50 1021 30.15 850 25.1 9 48.2 64 2.6 36.7 0 0
06:55 1021 30.15 850 25.1 9.4 49 56 1.2 34.2 0 0
07:00 1021 30.15 850 25.1 11 51.8 60 3.5 38.3 0 0
07:05 1021 30.15 851 25.13 10.8 51.4 57 2.6 36.8 0 0
07:10 1021 30.15 851 25.13 12 53.6 48 1.3 34.3 0 0
07:15 1021 30.15 851 25.13 13.2 55.8 53 3.8 38.9 0 0
07:20 1021 30.15 851 25.13 12.9 55.2 55 4.2 39.5 0 0
07:25 1021 30.15 851 25.13 12.4 54.3 53 3.3 37.9 0 0
07:30 1021 30.15 851 25.13 12.2 54 56 3.7 38.6 0 0
07:35 1021 30.15 851 25.13 12 53.6 58 4 39.3 0 0
07:40 1021 30.15 851 25.13 11.4 52.6 61 4.2 39.6 0 0
07:45 1021 30.15 851 25.13 11.4 52.6 57 3.3 38 0 0
07:50 1021 30.15 851 25.13 12.2 53.9 50 2.2 35.9 0 0
07:55 1021 30.15 851 25.13 12.6 54.7 55 4 39.1 0 0
08:00 1022 30.18 851 25.13 12.1 53.7 58 4.2 39.5 0 0
08:05 1021 30.15 851 25.13 12.8 55 55 4 39.2 0 0
08:10 1022 30.18 851 25.13 14.1 57.4 49 3.5 38.4 0 0
08:15 1022 30.18 851 25.13 15 59 52 5.2 41.4 0 0
08:20 1022 30.18 851 25.13 15.5 59.9 53 6 42.8 0 0
08:25 1022 30.18 851 25.13 15.9 60.7 47 4.9 40.7 0 0
08:30 1022 30.18 851 25.13 16.7 62.1 40 3.1 37.6 0 0
08:35 1021 30.15 851 25.13 17.4 63.4 40 3.8 38.8 0 0
08:40 1021 30.15 851 25.13 17.6 63.7 43 4.9 40.8 0 0
08:45 1021 30.15 851 25.13 18 64.3 44 5.5 42 0 0
08:50 1021 30.15 851 25.13 18.5 65.3 39 4.6 40.2 0 0
08:55 1021 30.15 851 25.13 18.6 65.4 36 3.2 37.7 0 0
09:00 1021 30.15 851 25.13 18.7 65.7 38 4.2 39.5 0 0
09:05 1021 30.15 851 25.13 18.8 65.9 36 3.7 38.7 0 0
09:10 1021 30.15 851 25.13 18.9 66 38 4.4 40 0 0
09:15 1021 30.15 850 25.1 19.3 66.8 34 3.1 37.6 0 0
09:20 1021 30.15 850 25.1 19.4 66.8 32 2.5 36.5 0 0
09:25 1021 30.15 850 25.1 19.7 67.4 35 4 39.2 0 0
09:30 1021 30.15 850 25.1 20.1 68.2 35 4.3 39.8 0 0
09:35 1021 30.15 850 25.1 20.5 68.9 32 3.3 37.9 0 0
09:40 1021 30.15 850 25.1 21 69.8 32 3.9 39.1 0 0
09:45 1021 30.15 850 25.1 21.4 70.5 34 5.1 41.2 0 0
09:50 1021 30.15 850 25.1 21.7 71.1 32 4.4 39.9 0 0
09:55 1021 30.15 850 25.1 21.8 71.2 29 2.9 37.2 0 0
10:00 1021 30.15 850 25.1 21.1 70 32 4 39.3 0 0
10:05 1021 30.15 850 25.1 21.5 70.7 32 4.1 39.4 0 0
10:10 1021 30.15 850 25.1 21.6 71 31 3.9 39 0 0
10:15 1021 30.15 850 25.1 21.4 70.5 27 1.7 35.1 0 0
10:20 1021 30.15 850 25.1 21.5 70.6 32 4.2 39.6 0 0
10:25 1020 30.12 850 25.1 21.3 70.3 30 3.1 37.6 0 0
10:30 1020 30.12 850 25.1 21.4 70.4 34 5.1 41.1 0 0
10:35 1020 30.12 850 25.1 21.5 70.8 34 5.4 41.7 0 0
10:40 1020 30.12 850 25.1 21.9 71.4 25 1.4 34.6 0 0
10:45 1020 30.12 850 25.1 22 71.5 31 4.1 39.5 0 0
10:50 1020 30.12 849 25.07 22.1 71.8 30 3.8 38.9 0 0
10:55 1020 30.12 849 25.07 22.3 72.1 28 3.1 37.6 0 0
11:00 1020 30.12 849 25.07 22.3 72.1 27 2.6 36.6 0 0
11:05 1020 30.12 849 25.07 22.6 72.6 31 4.7 40.4 0 0
11:10 1020 30.12 849 25.07 22.7 72.8 28 3.3 37.9 0 0
11:15 1020 30.12 849 25.07 22.8 73 32 5.4 41.7 0 0
11:20 1020 30.12 849 25.07 23 73.4 29 4.3 39.7 0 0
11:25 1020 30.12 849 25.07 23.3 74 29 4.7 40.5 0 0
11:30 1020 30.12 849 25.07 23 73.4 24 1.6 35 0 0
11:35 1020 30.12 849 25.07 23.5 74.2 31 5.4 41.8 0 0
11:40 1020 30.12 849 25.07 23.9 75 25 2.9 37.3 0 0
11:45 1020 30.12 849 25.07 24.2 75.5 24 2.6 36.8 0 0
11:50 1020 30.12 849 25.07 24.7 76.4 24 3.2 37.8 0 0
11:55 1019 30.09 849 25.07 24.9 76.7 29 5.8 42.5 0 0
12:00 1019 30.09 849 25.07 25.2 77.4 22 2.5 36.5 0 0
12:05 1019 30.09 848 25.04 25.3 77.5 25 4.1 39.3 0 0
12:10 1019 30.09 848 25.04 24.7 76.5 26 4.4 39.8 0 0
12:15 1019 30.09 848 25.04 24.4 75.9 28 5.1 41.2 0 0
12:20 1019 30.09 848 25.04 25.2 77.4 23 2.9 37.3 0 0
12:25 1019 30.09 848 25.04 25.1 77.1 23 2.6 36.7 0 0
12:30 1019 30.09 848 25.04 24.8 76.6 21 1.5 34.8 0 0
12:35 1019 30.09 848 25.04 25.3 77.5 24 3.5 38.4 0 0
12:40 1018 30.06 848 25.04 25.3 77.5 26 4.5 40.2 0 0
12:45 1018 30.06 848 25.04 25.7 78.3 26 5.2 41.3 0 0
12:50 1018 30.06 848 25.04 26.2 79.2 25 4.7 40.5 0 0
12:55 1018 30.06 847 25.01 26.4 79.5 20 2.1 35.8 0 0
13:00 1018 30.06 847 25.01 25.9 78.7 23 3.2 37.8 0 0
13:05 1018 30.06 847 25.01 26.2 79.2 26 5.3 41.6 0 0
13:10 1018 30.06 847 25.01 26.2 79.1 20 2.1 35.7 0 0
13:15 1018 30.06 847 25.01 27.1 80.8 15 -1.4 29.4 0 0
13:20 1018 30.06 847 25.01 26.7 80.1 16 -0.5 31.1 0 0
13:25 1018 30.06 847 25.01 25.9 78.7 21 2.1 35.7 0 0
13:30 1018 30.06 847 25.01 26.2 79.2 19 0.9 33.6 0 0
13:35 1018 30.06 847 25.01 26.2 79.2 20 1.9 35.4 0 0
13:40 1018 30.06 847 25.01 26.8 80.2 19 1.7 35 0 0
13:45 1018 30.06 847 25.01 26 78.8 19 0.9 33.6 0 0
13:50 1018 30.06 847 25.01 25.7 78.3 21 2.2 35.9 0 0
13:55 1018 30.06 847 25.01 25.3 77.5 23 3 37.4 0 0
14:00 1017 30.03 847 25.01 25.1 77.2 24 3.1 37.5 0 0
14:05 1017 30.03 847 25.01 25.4 77.7 22 2.4 36.3 0 0
14:10 1017 30.03 846 24.98 25.3 77.5 20 1.1 34.1 0 0
14:15 1017 30.03 846 24.98 25.5 77.9 21 1.8 35.2 0 0
14:20 1017 30.03 846 24.98 25.7 78.2 20 1.3 34.4 0 0
14:25 1017 30.03 846 24.98 26.2 79.2 19 1.1 34 0 0
14:30 1017 30.03 846 24.98 27 80.5 20 2.7 36.9 0 0
14:35 1017 30.03 846 24.98 26.4 79.6 23 3.9 39 0 0
14:40 1017 30.03 846 24.98 26.3 79.4 18 0.3 32.5 0 0
14:45 1017 30.03 846 24.98 26.6 80 20 2.4 36.3 0 0
14:50 1017 30.03 846 24.98 26 78.8 21 2 35.5 0 0
14:55 1017 30.03 846 24.98 26 78.8 19 0.6 33.1 0 0
15:00 1017 30.03 846 24.98 26 78.8 20 1.7 35.1 0 0
15:05 1017 30.03 846 24.98 25.7 78.3 20 1.2 34.2 0 0
15:10 1017 30.03 846 24.98 25.2 77.3 21 1.5 34.7 0 0
15:15 1017 30.03 846 24.98 25.1 77.2 21 1.5 34.7 0 0
15:20 1017 30.03 846 24.98 25.3 77.5 22 2 35.6 0 0
15:25 1017 30.03 846 24.98 25.5 77.8 22 2.3 36.1 0 0
15:30 1017 30.03 846 24.98 25 76.9 21 1.6 34.9 0 0
15:35 1017 30.03 846 24.98 25.2 77.3 21 1.6 34.8 0 0
15:40 1017 30.03 846 24.98 25.1 77.2 20 0.5 33 0 0
15:45 1017 30.03 846 24.98 25.3 77.6 21 1.8 35.2 0 0
15:50 1017 30.03 846 24.98 24.5 76.2 21 1.1 34 0 0
15:55 1017 30.03 846 24.98 24.5 76.1 23 2.3 36.1 0 0
16:00 1017 30.03 846 24.98 24.3 75.7 23 2.1 35.8 0 0
16:05 1016 30 846 24.98 24.4 76 24 2.6 36.7 0 0
16:10 1016 30 845 24.95 24.6 76.2 23 2.6 36.6 0 0
16:15 1016 30 846 24.98 24.2 75.5 24 2.4 36.4 0 0
16:20 1016 30 846 24.98 23.9 75 25 2.7 36.8 0 0
16:25 1017 30.03 846 24.98 23.2 73.7 32 5.8 42.5 0 0
16:30 1017 30.03 846 24.98 22.3 72.1 29 3.4 38.1 0 0
16:35 1017 30.03 846 24.98 23.2 73.8 29 4.6 40.3 0 0
16:40 1016 30 846 24.98 25 77 24 3.5 38.2 0 0
16:45 1016 30 846 24.98 26.2 79.2 23 3.5 38.3 0 0
16:50 1016 30 845 24.95 26.3 79.4 24 4.6 40.2 0 0
16:55 1016 30 845 24.95 26.5 79.6 25 4.9 40.9 0 0
17:00 1016 30 845 24.95 26.5 79.7 25 4.9 40.8 0 0
17:05 1016 30 845 24.95 26.1 79 24 4.5 40 0 0
17:10 1016 30 845 24.95 24.5 76.2 26 4.1 39.4 0 0
17:15 1016 30 845 24.95 24.1 75.3 27 4.2 39.5 0 0
17:20 1016 30 845 24.95 25.2 77.4 29 6 42.8 0 0
17:25 1016 30 845 24.95 25.7 78.2 23 3.4 38.2 0 0
17:30 1016 30 845 24.95 24 75.1 27 4.1 39.3 0 0
17:35 1016 30 845 24.95 23.4 74.1 26 2.8 37 0 0
17:40 1015 29.97 845 24.95 24.3 75.7 27 4.1 39.4 0 0
17:45 1015 29.97 845 24.95 24.5 76.1 25 3.2 37.8 0 0
17:50 1015 29.97 845 24.95 24.2 75.5 28 4.6 40.3 0 0
17:55 1015 29.97 844 24.92 24.8 76.7 27 5 41 0 0
18:00 1015 29.97 844 24.92 25.3 77.5 26 4.9 40.8 0 0
18:05 1015 29.97 844 24.92 25.3 77.5 28 5.9 42.6 0 0
18:10 1015 29.97 844 24.92 25.3 77.5 23 2.8 37.1 0 0
18:15 1015 29.97 844 24.92 25.2 77.3 25 3.8 38.9 0 0
18:20 1014 29.94 844 24.92 25.3 77.5 26 4.5 40.2 0 0
18:25 1014 29.94 844 24.92 25.2 77.4 25 4.1 39.3 0 0
18:30 1014 29.94 843 24.89 25 77 25 3.7 38.6 0 0
18:35 1014 29.94 843 24.89 24.9 76.8 22 2 35.6 0 0
18:40 1014 29.94 843 24.89 24.9 76.8 25 3.8 38.8 0 0
18:45 1014 29.94 843 24.89 24.7 76.4 23 2.4 36.3 0 0
18:50 1014 29.94 843 24.89 24.8 76.6 25 3.7 38.7 0 0
18:55 1014 29.94 843 24.89 24.9 76.7 24 3.2 37.8 0 0
19:00 1014 29.94 843 24.89 24.8 76.6 25 3.9 39 0 0
19:05 1014 29.94 843 24.89 24.4 75.9 26 4.1 39.4 0 0
19:10 1013 29.91 843 24.89 24.2 75.6 25 3.2 37.7 0 0
19:15 1013 29.91 843 24.89 24.3 75.7 27 4.5 40.1 0 0
19:20 1013 29.91 843 24.89 23.8 74.8 29 4.8 40.6 0 0
19:25 1013 29.91 843 24.89 23.8 74.8 28 4.6 40.3 0 0
19:30 1013 29.91 843 24.89 23.9 74.9 25 2.8 37.1 0 0
19:35 1013 29.91 843 24.89 23.8 74.9 27 4.1 39.4 0 0
19:40 1013 29.91 843 24.89 23.6 74.5 30 5.5 41.8 0 0
19:45 1014 29.94 843 24.89 23.3 73.9 30 5.1 41.2 0 0
19:50 1014 29.94 843 24.89 22.8 73 33 5.7 42.3 0 0
19:55 1014 29.94 843 24.89 21.6 70.8 36 6.1 43 0 0
20:00 1014 29.94 843 24.89 20.5 69 39 6.2 43.2 0 0
20:05 1014 29.94 843 24.89 20.2 68.3 25 -0.3 31.5 0 0
20:10 1013 29.91 843 24.89 22.2 71.9 23 0.4 32.8 0 0
20:15 1014 29.94 843 24.89 22.6 72.6 24 1.1 33.9 0 0
20:20 1013 29.91 843 24.89 22.9 73.2 19 -1.7 29 0 0
20:25 1014 29.94 843 24.89 23.4 74.2 20 -0.5 31.1 0 0
20:30 1014 29.94 843 24.89 22.9 73.2 22 0.2 32.4 0 0
20:35 1014 29.94 843 24.89 22.4 72.4 22 -0.4 31.3 0 0
20:40 1014 29.94 843 24.89 22.6 72.7 21 -0.9 30.3 0 0
20:45 1014 29.94 843 24.89 22.7 72.9 21 -0.6 30.9 0 0
20:50 1014 29.94 843 24.89 22.3 72.1 22 -0.3 31.4 0 0
20:55 1014 29.94 843 24.89 22.1 71.7 22 -0.7 30.8 0 0
21:00 1014 29.94 843 24.89 22.1 71.8 21 -0.7 30.7 0 0
21:05 1014 29.94 843 24.89 22 71.6 22 -0.7 30.7 0 0
21:10 1014 29.94 843 24.89 21.7 71.1 22 -0.8 30.6 0 0
21:15 1014 29.94 843 24.89 21.7 71 22 -1 30.2 0 0
21:20 1014 29.94 843 24.89 21.8 71.3 22 -0.8 30.6 0 0
21:25 1014 29.94 843 24.89 21.4 70.5 23 -0.2 31.6 0 0
21:30 1014 29.94 843 24.89 21 69.7 24 -0.2 31.7 0 0
21:35 1014 29.94 843 24.89 20.6 69.1 25 -0.1 31.8 0 0
21:40 1014 29.94 843 24.89 20.1 68.1 26 0.3 32.5 0 0
21:45 1014 29.94 843 24.89 19.4 67 27 0.3 32.5 0 0
21:50 1014 29.94 844 24.92 18.8 65.8 28 0.1 32.2 0 0
21:55 1014 29.94 844 24.92 18.4 65.1 29 0.1 32.2 0 0
22:00 1015 29.97 844 24.92 17.9 64.3 29 -0.1 31.8 0 0
22:05 1015 29.97 844 24.92 17.7 63.9 30 0 32 0 0
22:10 1015 29.97 844 24.92 17.2 63 31 0 32 0 0
22:15 1015 29.97 844 24.92 16.9 62.4 31 -0 32 0 0
22:20 1015 29.97 844 24.92 16.4 61.5 32 -0.3 31.4 0 0
22:25 1015 29.97 844 24.92 16.1 60.9 32 -0.6 30.9 0 0
22:30 1015 29.97 844 24.92 15.4 59.7 35 0.3 32.5 0 0
22:35 1015 29.97 844 24.92 14.6 58.3 40 1.1 33.9 0 0
22:40 1015 29.97 844 24.92 14 57.2 36 -0.7 30.7 0 0
22:45 1015 29.97 844 24.92 14.7 58.4 36 -0.3 31.4 0 0
22:50 1015 29.97 844 24.92 14.5 58.1 37 -0.1 31.9 0 0
22:55 1015 29.97 844 24.92 14.5 58.1 36 -0.4 31.4 0 0
23:00 1015 29.97 844 24.92 14.7 58.4 34 -0.8 30.6 0 0
23:05 1015 29.97 844 24.92 15.3 59.5 33 -0.9 30.3 0 0
23:10 1015 29.97 844 24.92 15.5 59.8 33 -0.6 30.9 0 0
23:15 1015 29.97 844 24.92 15.2 59.3 31 -1.7 28.9 0 0
23:20 1015 29.97 844 24.92 16.6 61.8 29 -1.4 29.4 0 0
23:25 1015 29.97 845 24.95 17.6 63.7 32 0.7 33.3 0 0
23:30 1015 29.97 845 24.95 16.6 61.9 35 1.3 34.3 0 0
23:35 1016 30 845 24.95 15.7 60.3 39 1.8 35.2 0 0
23:40 1016 30 845 24.95 15 59.1 41 1.8 35.3 0 0
23:45 1016 30 845 24.95 14.5 58 43 2.2 35.9 0 0
23:50 1016 30 845 24.95 14.8 58.6 42 2.1 35.7 0 0
23:55 1016 30 845 24.95 15 59.1 43 2.7 36.9 0 0
24:00 1016 30 846 24.98 15.5 59.9 45 3.6 38.4 0 0